Time;durP1;ratioP1;P1;durP2;ratioP2;P2;SDS_P1;SDS_P2;PMS_P1;PMS_P2;Temp;Humidity;BMP_temperature;BMP_pressure;BME280_temperature;BME280_humidity;BME280_pressure;Samples;Min_cycle;Max_cycle;Signal;HPM_P1;HPM_P2
2022/12/25 00:00:20;;;;;;;;;;;;;;;;;;1026978;28;19910;-76
2022/12/25 00:00:51;;;;;;;;;;;;;;;;;;1018807;29;20042;-77
2022/12/25 00:01:22;;;;;;;;;;;;;;;;;;1019051;29;19921;-77
2022/12/25 00:01:53;;;;;;;;;;;;;;;;;;1022132;29;19938;-76
2022/12/25 00:02:24;;;;;;;;;;;;;;;;;;1023026;29;19914;-77
2022/12/25 00:02:55;;;;;;;;;;;;;;;;;;1018790;29;19954;-77
2022/12/25 00:03:26;;;;;;;;;;;;;;;;;;1018884;29;20071;-77
2022/12/25 00:03:56;;;;;;;;;;;;;;;;;;1019222;29;19925;-76
2022/12/25 00:04:27;;;;;;;;;;;;;;;;;;1024106;28;20115;-77
2022/12/25 00:04:58;;;;;;;;;;;;;;;;;;1022770;29;19922;-77
2022/12/25 00:05:29;;;;;;;;;;;;;;;;;;1023802;28;20064;-77
2022/12/25 00:06:00;;;;;;;;;;;;;;;;;;1022921;28;19921;-76
2022/12/25 00:06:31;;;;;;;;;;;;;;;;;;1027179;28;20523;-77
2022/12/25 00:07:02;;;;;;;;;;;;;;;;;;1027321;28;20255;-76
2022/12/25 00:07:32;;;;;;;;;;;;;;;;;;1027531;28;20436;-76
2022/12/25 00:08:03;;;;;;;;;;;;;;;;;;1022639;29;19921;-76
2022/12/25 00:08:34;;;;;;;;;;;;;;;;;;1023159;29;19911;-77
2022/12/25 00:09:05;;;;;;;;;;;;;;;;;;1022701;29;19993;-76
2022/12/25 00:09:36;;;;;;;;;;;;;;;;;;1023837;29;20444;-76
2022/12/25 00:10:07;;;;;;;;;;;;;;;;;;1018890;29;20413;-76
2022/12/25 00:10:38;;;;;;;;;;;;;;;;;;1023161;29;20227;-77
2022/12/25 00:11:09;;;;;;;;;;;;;;;;;;1022750;29;19922;-76
2022/12/25 00:11:40;;;;;;;;;;;;;;;;;;1023197;29;20374;-76
2022/12/25 00:12:11;;;;;;;;;;;;;;;;;;1023364;28;19919;-76
2022/12/25 00:12:41;;;;;;;;;;;;;;;;;;1023627;28;19926;-76
2022/12/25 00:13:12;;;;;;;;;;;;;;;;;;1026743;28;19914;-77
2022/12/25 00:13:43;;;;;;;;;;;;;;;;;;1023109;29;20057;-77
2022/12/25 00:14:14;;;;;;;;;;;;;;;;;;1022523;29;20513;-76
2022/12/25 00:14:45;;;;;;;;;;;;;;;;;;1023792;29;19976;-76
2022/12/25 00:15:16;;;;;;;;;;;;;;;;;;1022647;28;20425;-78
2022/12/25 00:15:47;;;;;;;;;;;;;;;;;;1027154;28;19910;-76
2022/12/25 00:16:18;;;;;;;;;;;;;;;;;;1026589;28;19937;-76
2022/12/25 00:16:48;;;;;;;;;;;;;;;;;;1023085;29;19914;-76
2022/12/25 00:17:19;;;;;;;;;;;;;;;;;;1023075;29;19957;-77
2022/12/25 00:17:50;;;;;;;;;;;;;;;;;;1023188;29;19919;-76
2022/12/25 00:18:21;;;;;;;;;;;;;;;;;;1022751;29;19910;-76
2022/12/25 00:18:52;;;;;;;;;;;;;;;;;;1023122;28;19993;-76
2022/12/25 00:19:23;;;;;;;;;;;;;;;;;;1026835;28;20404;-77
2022/12/25 00:19:54;;;;;;;;;;;;;;;;;;1027529;28;19918;-78
2022/12/25 00:20:25;;;;;;;;;;;;;;;;;;1027200;28;19929;-76
2022/12/25 00:20:56;;;;;;;;;;;;;;;;;;1026976;28;19915;-75
2022/12/25 00:21:26;;;;;;;;;;;;;;;;;;1026971;28;19933;-76
2022/12/25 00:21:57;;;;;;;;;;;;;;;;;;1023076;28;20361;-77
2022/12/25 00:22:28;;;;;;;;;;;;;;;;;;1026633;28;19914;-78
2022/12/25 00:22:59;;;;;;;;;;;;;;;;;;1023601;28;19922;-76
2022/12/25 00:23:30;;;;;;;;;;;;;;;;;;1022702;29;20061;-77
2022/12/25 00:24:02;;;;;;;;;;;;;;;;;;1022923;29;20388;-77
2022/12/25 00:24:33;;;;;;;;;;;;;;;;;;1023197;29;19915;-77
2022/12/25 00:25:04;;;;;;;;;;;;;;;;;;1023732;28;19915;-76
2022/12/25 00:25:34;;;;;;;;;;;;;;;;;;1027221;28;19914;-77
2022/12/25 00:26:05;;;;;;;;;;;;;;;;;;1022810;29;20297;-77
2022/12/25 00:26:36;;;;;;;;;;;;;;;;;;1023186;29;20289;-77
2022/12/25 00:27:07;;;;;;;;;;;;;;;;;;1022884;29;19910;-76
2022/12/25 00:27:38;;;;;;;;;;;;;;;;;;1023225;29;19944;-77
2022/12/25 00:28:09;;;;;;;;;;;;;;;;;;1023054;29;19925;-77
2022/12/25 00:28:40;;;;;;;;;;;;;;;;;;1019158;29;20013;-78
2022/12/25 00:29:11;;;;;;;;;;;;;;;;;;1021875;28;19914;-77
2022/12/25 00:29:42;;;;;;;;;;;;;;;;;;1027382;28;20392;-77
2022/12/25 00:30:12;;;;;;;;;;;;;;;;;;1023172;28;19914;-76
2022/12/25 00:30:43;;;;;;;;;;;;;;;;;;1021728;29;20280;-76
2022/12/25 00:31:14;;;;;;;;;;;;;;;;;;1016248;29;19921;-76
2022/12/25 00:31:45;;;;;;;;;;;;;;;;;;1016296;29;19915;-77
2022/12/25 00:32:16;;;;;;;;;;;;;;;;;;1015333;29;19930;-76
2022/12/25 00:32:47;;;;;;;;;;;;;;;;;;1020042;29;19930;-77
2022/12/25 00:33:18;;;;;;;;;;;;;;;;;;1020114;29;19937;-77
2022/12/25 00:33:49;;;;;;;;;;;;;;;;;;1023844;28;19922;-77
2022/12/25 00:34:20;;;;;;;;;;;;;;;;;;1023075;29;19915;-76
2022/12/25 00:34:51;;;;;;;;;;;;;;;;;;1023984;29;20491;-76
2022/12/25 00:35:21;;;;;;;;;;;;;;;;;;1023305;29;19910;-76
2022/12/25 00:35:52;;;;;;;;;;;;;;;;;;1024626;29;20118;-77
2022/12/25 00:36:23;;;;;;;;;;;;;;;;;;1023486;29;19910;-76
2022/12/25 00:36:54;;;;;;;;;;;;;;;;;;1024133;28;19914;-77
2022/12/25 00:37:25;;;;;;;;;;;;;;;;;;1027289;28;19985;-77
2022/12/25 00:37:56;;;;;;;;;;;;;;;;;;1027825;28;19914;-77
2022/12/25 00:38:27;;;;;;;;;;;;;;;;;;1028338;28;19914;-77
2022/12/25 00:38:57;;;;;;;;;;;;;;;;;;1027752;28;20010;-77
2022/12/25 00:39:28;;;;;;;;;;;;;;;;;;1023386;29;19930;-77
2022/12/25 00:39:59;;;;;;;;;;;;;;;;;;1023330;29;19914;-76
2022/12/25 00:40:30;;;;;;;;;;;;;;;;;;1023649;29;20009;-77
2022/12/25 00:41:01;;;;;;;;;;;;;;;;;;1025036;28;19911;-77
2022/12/25 00:42:22;;;;;;;;;;;;;;;;;;1028294;28;19917;-77
2022/12/25 00:42:53;;;;;;;;;;;;;;;;;;1023502;29;19922;-77
2022/12/25 00:43:24;;;;;;;;;;;;;;;;;;1024448;29;19914;-76
2022/12/25 00:43:55;;;;;;;;;;;;;;;;;;1023847;29;19914;-76
2022/12/25 00:44:26;;;;;;;;;;;;;;;;;;1023929;28;20205;-76
2022/12/25 00:44:57;;;;;;;;;;;;;;;;;;1027755;28;19922;-76
2022/12/25 00:45:27;;;;;;;;;;;;;;;;;;1023715;29;19920;-77
2022/12/25 00:45:58;;;;;;;;;;;;;;;;;;1024132;29;20401;-77
2022/12/25 00:46:29;;;;;;;;;;;;;;;;;;1023496;28;19915;-76
2022/12/25 00:47:00;;;;;;;;;;;;;;;;;;1023542;28;19957;-77
2022/12/25 00:47:31;;;;;;;;;;;;;;;;;;1023579;29;20086;-76
2022/12/25 00:48:02;;;;;;;;;;;;;;;;;;1023389;28;19965;-77
2022/12/25 00:48:33;;;;;;;;;;;;;;;;;;1024085;29;19914;-77
2022/12/25 00:49:04;;;;;;;;;;;;;;;;;;1023690;28;19970;-76
2022/12/25 00:49:34;;;;;;;;;;;;;;;;;;1027851;28;19926;-76
2022/12/25 00:50:05;;;;;;;;;;;;;;;;;;1027707;28;20381;-76
2022/12/25 00:50:36;;;;;;;;;;;;;;;;;;1023594;29;19949;-77
2022/12/25 00:51:07;;;;;;;;;;;;;;;;;;1019846;29;20325;-78
2022/12/25 00:51:38;;;;;;;;;;;;;;;;;;1020170;29;19911;-77
2022/12/25 00:52:09;;;;;;;;;;;;;;;;;;1015708;29;19934;-77
2022/12/25 00:52:40;;;;;;;;;;;;;;;;;;1020217;29;19915;-76
2022/12/25 00:53:11;;;;;;;;;;;;;;;;;;1023336;29;20188;-77
2022/12/25 00:53:41;;;;;;;;;;;;;;;;;;1025117;28;20536;-75
2022/12/25 00:54:12;;;;;;;;;;;;;;;;;;1027715;28;20432;-77
2022/12/25 00:54:43;;;;;;;;;;;;;;;;;;1028249;28;19915;-77
2022/12/25 00:55:14;;;;;;;;;;;;;;;;;;1022796;29;20365;-77
2022/12/25 00:55:45;;;;;;;;;;;;;;;;;;1023893;29;19933;-77
2022/12/25 00:56:16;;;;;;;;;;;;;;;;;;1023854;29;19914;-76
2022/12/25 00:56:47;;;;;;;;;;;;;;;;;;1023872;29;20100;-77
2022/12/25 00:57:18;;;;;;;;;;;;;;;;;;1023439;29;19914;-77
2022/12/25 00:57:49;;;;;;;;;;;;;;;;;;1024099;28;20377;-76
2022/12/25 00:58:20;;;;;;;;;;;;;;;;;;1027390;28;20322;-77
2022/12/25 00:58:51;;;;;;;;;;;;;;;;;;1028753;28;19961;-78
2022/12/25 00:59:22;;;;;;;;;;;;;;;;;;1027526;28;20344;-78
2022/12/25 00:59:52;;;;;;;;;;;;;;;;;;1028169;28;20415;-77
2022/12/25 01:00:23;;;;;;;;;;;;;;;;;;1019526;29;20412;-77
2022/12/25 01:00:55;;;;;;;;;;;;;;;;;;1015668;29;19919;-78
2022/12/25 01:01:25;;;;;;;;;;;;;;;;;;1016146;29;19915;-78
2022/12/25 01:02:21;;;;;;;;;;;;;;;;;;1018881;29;19917;-77
2022/12/25 01:02:47;;;;;;;;;;;;;;;;;;1026690;28;19937;-77
2022/12/25 01:03:18;;;;;;;;;;;;;;;;;;1023846;28;20048;-77
2022/12/25 01:03:49;;;;;;;;;;;;;;;;;;1023568;29;20423;-76
2022/12/25 01:04:20;;;;;;;;;;;;;;;;;;1024413;29;19978;-77
2022/12/25 01:04:51;;;;;;;;;;;;;;;;;;1023694;28;20345;-77
2022/12/25 01:05:21;;;;;;;;;;;;;;;;;;1027620;28;19920;-77
2022/12/25 01:05:52;;;;;;;;;;;;;;;;;;1023383;29;19938;-77
2022/12/25 01:06:23;;;;;;;;;;;;;;;;;;1023690;29;20373;-77
2022/12/25 01:06:54;;;;;;;;;;;;;;;;;;1023807;28;19964;-77
2022/12/25 01:07:25;;;;;;;;;;;;;;;;;;1023971;28;20492;-76
2022/12/25 01:07:56;;;;;;;;;;;;;;;;;;1023403;29;19914;-77
2022/12/25 01:08:27;;;;;;;;;;;;;;;;;;1023540;29;19914;-76
2022/12/25 01:10:37;;;;;;;;;;;;;;;;;;1028171;28;20387;-76
2022/12/25 01:11:08;;;;;;;;;;;;;;;;;;1023331;29;19914;-76
2022/12/25 01:11:39;;;;;;;;;;;;;;;;;;1019699;29;19919;-76
2022/12/25 01:12:10;;;;;;;;;;;;;;;;;;1020017;29;19957;-76
2022/12/25 01:12:40;;;;;;;;;;;;;;;;;;1019845;29;20408;-76
2022/12/25 01:13:11;;;;;;;;;;;;;;;;;;1019081;29;19923;-77
2022/12/25 01:13:42;;;;;;;;;;;;;;;;;;1021423;29;20398;-77
2022/12/25 01:14:13;;;;;;;;;;;;;;;;;;1023208;29;19922;-77
2022/12/25 01:14:44;;;;;;;;;;;;;;;;;;1024674;28;19954;-77
2022/12/25 01:15:15;;;;;;;;;;;;;;;;;;1027198;28;20121;-77
2022/12/25 01:15:46;;;;;;;;;;;;;;;;;;1027596;28;19922;-77
2022/12/25 01:16:16;;;;;;;;;;;;;;;;;;1023345;28;19953;-78
2022/12/25 01:16:47;;;;;;;;;;;;;;;;;;1027761;28;19938;-77
2022/12/25 01:17:18;;;;;;;;;;;;;;;;;;1027634;28;19910;-78
2022/12/25 01:17:49;;;;;;;;;;;;;;;;;;1027998;28;20487;-77
2022/12/25 01:18:20;;;;;;;;;;;;;;;;;;1023298;29;19910;-76
2022/12/25 01:18:51;;;;;;;;;;;;;;;;;;1023687;29;20476;-77
2022/12/25 01:19:21;;;;;;;;;;;;;;;;;;1023500;29;20009;-78
2022/12/25 01:19:52;;;;;;;;;;;;;;;;;;1024566;28;20397;-77
2022/12/25 01:20:23;;;;;;;;;;;;;;;;;;1027144;28;19914;-77
2022/12/25 01:20:54;;;;;;;;;;;;;;;;;;1023622;29;19949;-78
2022/12/25 01:21:25;;;;;;;;;;;;;;;;;;1023361;29;19953;-77
2022/12/25 01:21:56;;;;;;;;;;;;;;;;;;1023475;29;19915;-77
2022/12/25 01:22:27;;;;;;;;;;;;;;;;;;1024150;28;19988;-77
2022/12/25 01:22:57;;;;;;;;;;;;;;;;;;1027481;28;19964;-77
2022/12/25 01:23:28;;;;;;;;;;;;;;;;;;1023077;29;19921;-77
2022/12/25 01:23:59;;;;;;;;;;;;;;;;;;1023199;29;19997;-77
2022/12/25 01:24:30;;;;;;;;;;;;;;;;;;1023315;29;19917;-78
2022/12/25 01:25:01;;;;;;;;;;;;;;;;;;1024048;28;20219;-77
2022/12/25 01:25:32;;;;;;;;;;;;;;;;;;1027410;28;20289;-77
2022/12/25 01:26:03;;;;;;;;;;;;;;;;;;1027650;28;20280;-77
2022/12/25 01:26:34;;;;;;;;;;;;;;;;;;1023167;29;19918;-77
2022/12/25 01:27:05;;;;;;;;;;;;;;;;;;1023261;29;20309;-77
2022/12/25 01:27:35;;;;;;;;;;;;;;;;;;1023848;29;19915;-77
2022/12/25 01:28:06;;;;;;;;;;;;;;;;;;1023359;28;20378;-77
2022/12/25 01:28:37;;;;;;;;;;;;;;;;;;1027388;28;19914;-76
2022/12/25 01:29:08;;;;;;;;;;;;;;;;;;1023051;28;20455;-77
2022/12/25 01:29:39;;;;;;;;;;;;;;;;;;1023375;29;19911;-77
2022/12/25 01:30:10;;;;;;;;;;;;;;;;;;1023804;29;19914;-78
2022/12/25 01:30:41;;;;;;;;;;;;;;;;;;1023655;28;20523;-77
2022/12/25 01:31:11;;;;;;;;;;;;;;;;;;1022947;29;19925;-77
2022/12/25 01:31:43;;;;;;;;;;;;;;;;;;1023474;29;20477;-77
2022/12/25 01:32:14;;;;;;;;;;;;;;;;;;1022365;29;19919;-77
2022/12/25 01:32:45;;;;;;;;;;;;;;;;;;1024568;28;19969;-77
2022/12/25 01:33:15;;;;;;;;;;;;;;;;;;1023554;28;20044;-77
2022/12/25 01:33:46;;;;;;;;;;;;;;;;;;1023582;29;19914;-77
2022/12/25 01:34:17;;;;;;;;;;;;;;;;;;1019879;29;19911;-76
2022/12/25 01:34:48;;;;;;;;;;;;;;;;;;1019774;29;20095;-76
2022/12/25 01:35:19;;;;;;;;;;;;;;;;;;1023235;28;19914;-77
2022/12/25 01:35:50;;;;;;;;;;;;;;;;;;1027635;28;19910;-77
2022/12/25 01:36:21;;;;;;;;;;;;;;;;;;1022408;29;20005;-77
2022/12/25 01:36:51;;;;;;;;;;;;;;;;;;1023480;29;19942;-77
2022/12/25 01:37:22;;;;;;;;;;;;;;;;;;1022895;29;20073;-77
2022/12/25 01:37:54;;;;;;;;;;;;;;;;;;1023839;28;19914;-76
2022/12/25 01:38:25;;;;;;;;;;;;;;;;;;1018901;29;19915;-77
2022/12/25 01:38:56;;;;;;;;;;;;;;;;;;1019422;29;19975;-77
2022/12/25 01:39:28;;;;;;;;;;;;;;;;;;1018185;29;21327;-77
2022/12/25 01:39:59;;;;;;;;;;;;;;;;;;1023563;28;19985;-77
2022/12/25 01:40:30;;;;;;;;;;;;;;;;;;1023656;29;19918;-77
2022/12/25 01:41:01;;;;;;;;;;;;;;;;;;1023283;29;20357;-76
2022/12/25 01:41:32;;;;;;;;;;;;;;;;;;1022778;29;19915;-77
2022/12/25 01:42:02;;;;;;;;;;;;;;;;;;1023201;29;20530;-77
2022/12/25 01:42:33;;;;;;;;;;;;;;;;;;1018993;29;19999;-78
2022/12/25 01:43:05;;;;;;;;;;;;;;;;;;1019288;29;19923;-77
2022/12/25 01:43:35;;;;;;;;;;;;;;;;;;1016597;29;19915;-77
2022/12/25 01:44:06;;;;;;;;;;;;;;;;;;1015706;29;20018;-77
2022/12/25 01:44:37;;;;;;;;;;;;;;;;;;1015507;29;19923;-77
2022/12/25 01:45:08;;;;;;;;;;;;;;;;;;1019486;29;20013;-77
2022/12/25 01:45:39;;;;;;;;;;;;;;;;;;1020081;29;20004;-77
2022/12/25 01:46:10;;;;;;;;;;;;;;;;;;1023413;28;19953;-77
2022/12/25 01:46:41;;;;;;;;;;;;;;;;;;1027591;28;19914;-77
2022/12/25 01:47:12;;;;;;;;;;;;;;;;;;1022867;29;20208;-76
2022/12/25 01:47:42;;;;;;;;;;;;;;;;;;1023333;29;19946;-77
2022/12/25 01:48:13;;;;;;;;;;;;;;;;;;1023497;29;19937;-76
2022/12/25 01:48:44;;;;;;;;;;;;;;;;;;1019264;29;19921;-77
2022/12/25 01:49:15;;;;;;;;;;;;;;;;;;1019176;29;19938;-78
2022/12/25 01:49:46;;;;;;;;;;;;;;;;;;1019966;29;19917;-77
2022/12/25 01:50:17;;;;;;;;;;;;;;;;;;1023249;28;19914;-78
2022/12/25 01:50:48;;;;;;;;;;;;;;;;;;1023844;29;19915;-76
2022/12/25 01:51:19;;;;;;;;;;;;;;;;;;1019769;29;20547;-77
2022/12/25 01:51:49;;;;;;;;;;;;;;;;;;1019144;29;20010;-77
2022/12/25 01:52:20;;;;;;;;;;;;;;;;;;1015160;29;20294;-77
2022/12/25 01:52:51;;;;;;;;;;;;;;;;;;1019856;29;19915;-78
2022/12/25 01:53:22;;;;;;;;;;;;;;;;;;1019304;29;19915;-78
2022/12/25 01:53:53;;;;;;;;;;;;;;;;;;1019460;29;19914;-77
2022/12/25 01:54:24;;;;;;;;;;;;;;;;;;1023374;28;19990;-77
2022/12/25 01:54:55;;;;;;;;;;;;;;;;;;1023706;28;20409;-77
2022/12/25 01:55:25;;;;;;;;;;;;;;;;;;1027704;28;20278;-76
2022/12/25 01:55:56;;;;;;;;;;;;;;;;;;1028283;28;19914;-76
2022/12/25 01:56:27;;;;;;;;;;;;;;;;;;1027574;28;20396;-77
2022/12/25 01:56:58;;;;;;;;;;;;;;;;;;1027784;28;19910;-77
2022/12/25 01:57:29;;;;;;;;;;;;;;;;;;1027552;28;20005;-77
2022/12/25 01:58:00;;;;;;;;;;;;;;;;;;1023403;29;19961;-77
2022/12/25 01:58:31;;;;;;;;;;;;;;;;;;1023514;29;19926;-77
2022/12/25 01:59:02;;;;;;;;;;;;;;;;;;1023736;29;19997;-76
2022/12/25 01:59:33;;;;;;;;;;;;;;;;;;1023257;29;19910;-77
2022/12/25 02:00:04;;;;;;;;;;;;;;;;;;1024954;28;19958;-77
2022/12/25 02:00:34;;;;;;;;;;;;;;;;;;1027123;28;20116;-76
2022/12/25 02:01:05;;;;;;;;;;;;;;;;;;1027815;28;19910;-76
2022/12/25 02:01:36;;;;;;;;;;;;;;;;;;1023401;29;20481;-76
2022/12/25 02:02:07;;;;;;;;;;;;;;;;;;1023631;29;19938;-77
2022/12/25 02:02:38;;;;;;;;;;;;;;;;;;1023229;29;19913;-77
2022/12/25 02:03:09;;;;;;;;;;;;;;;;;;1023638;28;19954;-76
2022/12/25 02:03:41;;;;;;;;;;;;;;;;;;1023024;28;19933;-75
2022/12/25 02:04:12;;;;;;;;;;;;;;;;;;1023675;29;19915;-78
2022/12/25 02:04:43;;;;;;;;;;;;;;;;;;1023390;29;19910;-77
2022/12/25 02:05:13;;;;;;;;;;;;;;;;;;1023311;28;19997;-77
2022/12/25 02:05:44;;;;;;;;;;;;;;;;;;1019298;29;20006;-77
2022/12/25 02:06:15;;;;;;;;;;;;;;;;;;1021019;29;20117;-77
2022/12/25 02:06:46;;;;;;;;;;;;;;;;;;1023599;29;19953;-76
2022/12/25 02:07:17;;;;;;;;;;;;;;;;;;1023257;29;20396;-78
2022/12/25 02:07:48;;;;;;;;;;;;;;;;;;1023261;29;19911;-76
2022/12/25 02:08:19;;;;;;;;;;;;;;;;;;1023787;28;20373;-76
2022/12/25 02:08:49;;;;;;;;;;;;;;;;;;1023135;29;20014;-77
2022/12/25 02:09:20;;;;;;;;;;;;;;;;;;1024038;29;19911;-77
2022/12/25 02:09:51;;;;;;;;;;;;;;;;;;1023488;29;19918;-78
2022/12/25 02:10:22;;;;;;;;;;;;;;;;;;1023541;29;19997;-77
2022/12/25 02:10:53;;;;;;;;;;;;;;;;;;1023277;29;19911;-78
2022/12/25 02:12:13;;;;;;;;;;;;;;;;;;1027005;28;20379;-77
2022/12/25 02:12:44;;;;;;;;;;;;;;;;;;1027687;28;20325;-78
2022/12/25 02:13:15;;;;;;;;;;;;;;;;;;1027353;28;19914;-77
2022/12/25 02:13:46;;;;;;;;;;;;;;;;;;1027978;28;19988;-76
2022/12/25 02:14:17;;;;;;;;;;;;;;;;;;1023491;29;20437;-76
2022/12/25 02:14:47;;;;;;;;;;;;;;;;;;1023601;29;19915;-77
2022/12/25 02:15:18;;;;;;;;;;;;;;;;;;1022724;29;20415;-77
2022/12/25 02:15:49;;;;;;;;;;;;;;;;;;1022446;29;19997;-77
2022/12/25 02:16:21;;;;;;;;;;;;;;;;;;1015063;29;19918;-77
2022/12/25 02:16:51;;;;;;;;;;;;;;;;;;1016756;29;19915;-76
2022/12/25 02:17:22;;;;;;;;;;;;;;;;;;1022838;29;20499;-77
2022/12/25 02:17:53;;;;;;;;;;;;;;;;;;1024044;28;19911;-78
2022/12/25 02:18:24;;;;;;;;;;;;;;;;;;1027106;28;19914;-77
2022/12/25 02:18:55;;;;;;;;;;;;;;;;;;1027146;28;20011;-77
2022/12/25 02:19:26;;;;;;;;;;;;;;;;;;1023668;29;20338;-77
2022/12/25 02:19:57;;;;;;;;;;;;;;;;;;1023505;29;19914;-76
2022/12/25 02:20:27;;;;;;;;;;;;;;;;;;1022986;28;19942;-77
2022/12/25 02:20:58;;;;;;;;;;;;;;;;;;1023632;29;19921;-77
2022/12/25 02:21:29;;;;;;;;;;;;;;;;;;1022757;29;20584;-77
2022/12/25 02:22:00;;;;;;;;;;;;;;;;;;1019991;29;20002;-76
2022/12/25 02:22:31;;;;;;;;;;;;;;;;;;1022953;29;19921;-78
2022/12/25 02:23:02;;;;;;;;;;;;;;;;;;1023767;28;19921;-77
2022/12/25 02:23:33;;;;;;;;;;;;;;;;;;1027156;28;19921;-77
2022/12/25 02:24:04;;;;;;;;;;;;;;;;;;1027418;28;19921;-77
2022/12/25 02:24:35;;;;;;;;;;;;;;;;;;1027990;28;19942;-78
2022/12/25 02:25:07;;;;;;;;;;;;;;;;;;1023447;29;19914;-76
2022/12/25 02:25:38;;;;;;;;;;;;;;;;;;1022888;28;19961;-77
2022/12/25 02:26:08;;;;;;;;;;;;;;;;;;1023585;29;19927;-76
2022/12/25 02:26:39;;;;;;;;;;;;;;;;;;1023502;28;19978;-77
2022/12/25 02:27:10;;;;;;;;;;;;;;;;;;1028090;28;19910;-77
2022/12/25 02:27:41;;;;;;;;;;;;;;;;;;1027096;28;19914;-77
2022/12/25 02:28:12;;;;;;;;;;;;;;;;;;1023297;28;20005;-77
2022/12/25 02:28:43;;;;;;;;;;;;;;;;;;1027288;28;20329;-78
2022/12/25 02:29:16;;;;;;;;;;;;;;;;;;1027042;28;19918;-77
2022/12/25 02:29:46;;;;;;;;;;;;;;;;;;1028002;28;19961;-77
2022/12/25 02:30:17;;;;;;;;;;;;;;;;;;1027109;28;19962;-77
2022/12/25 02:30:48;;;;;;;;;;;;;;;;;;1022793;29;19921;-78
2022/12/25 02:31:19;;;;;;;;;;;;;;;;;;1019452;29;20675;-76
2022/12/25 02:31:50;;;;;;;;;;;;;;;;;;1022990;29;19954;-78
2022/12/25 02:32:21;;;;;;;;;;;;;;;;;;1023301;28;20429;-77
2022/12/25 02:32:52;;;;;;;;;;;;;;;;;;1019128;29;19966;-77
2022/12/25 02:34:12;;;;;;;;;;;;;;;;;;1021194;29;19958;-77
2022/12/25 02:34:43;;;;;;;;;;;;;;;;;;1026053;28;19915;-76
2022/12/25 02:35:14;;;;;;;;;;;;;;;;;;1027647;28;20384;-77
2022/12/25 02:35:45;;;;;;;;;;;;;;;;;;1027286;28;19993;-77
2022/12/25 02:36:16;;;;;;;;;;;;;;;;;;1022860;29;19910;-77
2022/12/25 02:36:46;;;;;;;;;;;;;;;;;;1023612;29;20429;-78
2022/12/25 02:37:17;;;;;;;;;;;;;;;;;;1022942;29;19962;-77
2022/12/25 02:37:48;;;;;;;;;;;;;;;;;;1024478;28;19906;-77
2022/12/25 02:38:19;;;;;;;;;;;;;;;;;;1026883;28;19911;-77
2022/12/25 02:39:58;;;;;;;;;;;;;;;;;;1026901;28;20403;-77
2022/12/25 02:40:29;;;;;;;;;;;;;;;;;;1027659;28;19910;-77
2022/12/25 02:40:59;;;;;;;;;;;;;;;;;;1023336;29;19950;-76
2022/12/25 02:41:30;;;;;;;;;;;;;;;;;;1023012;29;19918;-77
2022/12/25 02:42:01;;;;;;;;;;;;;;;;;;1023281;29;19910;-77
2022/12/25 03:06:45;;;;;;;;;;;;;;;;;;1023254;29;20416;-77
2022/12/25 03:07:16;;;;;;;;;;;;;;;;;;1019228;29;20388;-77
2022/12/25 03:07:46;;;;;;;;;;;;;;;;;;1019038;29;19971;-76
2022/12/25 03:08:17;;;;;;;;;;;;;;;;;;1019358;29;19914;-76
2022/12/25 03:08:48;;;;;;;;;;;;;;;;;;1019835;29;19922;-77
2022/12/25 03:11:48;;;;;;;;;;;;;;;;;;1023266;29;19921;-78
2022/12/25 03:12:19;;;;;;;;;;;;;;;;;;1018929;29;19918;-76
2022/12/25 03:12:50;;;;;;;;;;;;;;;;;;1019499;29;19915;-77
2022/12/25 03:13:21;;;;;;;;;;;;;;;;;;1018902;29;19923;-77
2022/12/25 03:13:52;;;;;;;;;;;;;;;;;;1019991;29;19914;-77
2022/12/25 03:16:52;;;;;;;;;;;;;;;;;;1020065;29;19958;-77
2022/12/25 03:17:23;;;;;;;;;;;;;;;;;;1014977;29;19970;-77
2022/12/25 03:17:54;;;;;;;;;;;;;;;;;;1015426;29;19922;-77
2022/12/25 03:18:25;;;;;;;;;;;;;;;;;;1017239;29;19991;-77
2022/12/25 03:18:55;;;;;;;;;;;;;;;;;;1015824;29;19923;-78
2022/12/25 03:26:53;;;;;;;;;;;;;;;;;;1024054;29;19973;-77
2022/12/25 03:27:24;;;;;;;;;;;;;;;;;;1019142;29;19911;-78
2022/12/25 03:27:55;;;;;;;;;;;;;;;;;;1019101;29;19927;-77
2022/12/25 03:28:26;;;;;;;;;;;;;;;;;;1018973;29;19998;-78
2022/12/25 03:28:57;;;;;;;;;;;;;;;;;;1015218;29;20728;-77
2022/12/25 03:31:13;;;;;;;;;;;;;;;;;;1019143;29;19970;-77
2022/12/25 03:31:43;;;;;;;;;;;;;;;;;;1023037;29;19918;-77
2022/12/25 03:32:14;;;;;;;;;;;;;;;;;;1018986;29;19918;-78
2022/12/25 03:32:45;;;;;;;;;;;;;;;;;;1019227;29;20216;-77
2022/12/25 03:33:16;;;;;;;;;;;;;;;;;;1014956;29;19915;-77
2022/12/25 03:35:21;;;;;;;;;;;;;;;;;;1019119;29;19946;-77
2022/12/25 03:35:29;;;;;;;;;;;;;;;;;;1021800;28;19917;-77
2022/12/25 03:36:04;;;;;;;;;;;;;;;;;;1023480;29;19915;-77
2022/12/25 03:36:35;;;;;;;;;;;;;;;;;;1018996;29;19911;-77
2022/12/25 04:36:12;;;;;;;;;;;;;;;;;;1027376;28;20451;-77
2022/12/25 04:36:43;;;;;;;;;;;;;;;;;;1027545;28;19910;-77
2022/12/25 04:37:14;;;;;;;;;;;;;;;;;;1027721;28;19914;-77
2022/12/25 04:37:45;;;;;;;;;;;;;;;;;;1027492;28;19956;-77
2022/12/25 04:38:19;;;;;;;;;;;;;;;;;;1027077;28;20005;-77
2022/12/25 04:38:50;;;;;;;;;;;;;;;;;;1023190;29;20044;-77
2022/12/25 04:39:22;;;;;;;;;;;;;;;;;;1022996;29;19989;-76
2022/12/25 04:39:53;;;;;;;;;;;;;;;;;;1024183;28;20345;-77
2022/12/25 04:40:24;;;;;;;;;;;;;;;;;;1018793;29;20342;-77
2022/12/25 04:40:55;;;;;;;;;;;;;;;;;;1019188;29;19914;-78
2022/12/25 04:41:26;;;;;;;;;;;;;;;;;;1018725;29;19911;-77
2022/12/25 04:41:58;;;;;;;;;;;;;;;;;;1019387;29;19962;-77
2022/12/25 04:42:29;;;;;;;;;;;;;;;;;;1023727;28;20370;-77
2022/12/25 04:42:59;;;;;;;;;;;;;;;;;;1027079;28;20266;-77
2022/12/25 04:43:30;;;;;;;;;;;;;;;;;;1026434;28;19977;-77
2022/12/25 04:44:01;;;;;;;;;;;;;;;;;;1027146;28;20396;-76
2022/12/25 04:44:32;;;;;;;;;;;;;;;;;;1026711;28;19910;-77
2022/12/25 04:45:03;;;;;;;;;;;;;;;;;;1027882;28;19910;-77
2022/12/25 04:45:34;;;;;;;;;;;;;;;;;;1026967;28;19910;-77
2022/12/25 04:46:05;;;;;;;;;;;;;;;;;;1023139;29;20029;-77
2022/12/25 04:46:36;;;;;;;;;;;;;;;;;;1022474;29;19961;-77
2022/12/25 04:47:06;;;;;;;;;;;;;;;;;;1023083;29;20090;-77
2022/12/25 04:47:37;;;;;;;;;;;;;;;;;;1023094;29;20239;-77
2022/12/25 04:48:08;;;;;;;;;;;;;;;;;;1023322;29;20401;-77
2022/12/25 04:48:39;;;;;;;;;;;;;;;;;;1020316;29;19911;-76
2022/12/25 04:49:10;;;;;;;;;;;;;;;;;;1022982;29;19910;-77
2022/12/25 04:49:41;;;;;;;;;;;;;;;;;;1022635;29;19942;-77
2022/12/25 04:50:12;;;;;;;;;;;;;;;;;;1023859;28;20159;-78
2022/12/25 04:50:42;;;;;;;;;;;;;;;;;;1026724;28;19922;-77
2022/12/25 04:51:13;;;;;;;;;;;;;;;;;;1027322;28;20419;-77
2022/12/25 04:51:44;;;;;;;;;;;;;;;;;;1027160;28;19994;-78
2022/12/25 04:52:15;;;;;;;;;;;;;;;;;;1027061;28;19917;-77
2022/12/25 04:52:46;;;;;;;;;;;;;;;;;;1023660;29;20005;-77
2022/12/25 04:53:17;;;;;;;;;;;;;;;;;;1022934;29;19922;-77
2022/12/25 04:53:48;;;;;;;;;;;;;;;;;;1022796;28;20304;-77
2022/12/25 04:54:18;;;;;;;;;;;;;;;;;;1022828;28;19942;-77
2022/12/25 04:54:49;;;;;;;;;;;;;;;;;;1022971;29;20294;-77
2022/12/25 04:55:20;;;;;;;;;;;;;;;;;;1023228;29;19914;-77
2022/12/25 04:55:51;;;;;;;;;;;;;;;;;;1022715;29;20449;-77
2022/12/25 04:56:22;;;;;;;;;;;;;;;;;;1023251;28;19910;-77
2022/12/25 04:56:53;;;;;;;;;;;;;;;;;;1026908;28;20263;-77
2022/12/25 04:57:24;;;;;;;;;;;;;;;;;;1026934;28;20000;-77
2022/12/25 04:57:55;;;;;;;;;;;;;;;;;;1023431;29;19913;-77
2022/12/25 04:58:25;;;;;;;;;;;;;;;;;;1023062;29;20477;-77
2022/12/25 04:58:56;;;;;;;;;;;;;;;;;;1023074;29;19907;-77
2022/12/25 04:59:27;;;;;;;;;;;;;;;;;;1022718;28;19950;-77
2022/12/25 04:59:58;;;;;;;;;;;;;;;;;;1027004;28;20300;-77
2022/12/25 05:00:29;;;;;;;;;;;;;;;;;;1027536;28;19911;-76
2022/12/25 05:01:00;;;;;;;;;;;;;;;;;;1026828;28;20508;-77
2022/12/25 05:01:31;;;;;;;;;;;;;;;;;;1026504;28;19914;-77
2022/12/25 05:02:02;;;;;;;;;;;;;;;;;;1027154;28;19917;-77
2022/12/25 05:02:32;;;;;;;;;;;;;;;;;;1026372;28;19942;-76
2022/12/25 05:03:03;;;;;;;;;;;;;;;;;;1027544;28;19917;-77
2022/12/25 05:03:34;;;;;;;;;;;;;;;;;;1026872;28;20385;-76
2022/12/25 05:04:05;;;;;;;;;;;;;;;;;;1027546;28;20393;-76
2022/12/25 05:04:36;;;;;;;;;;;;;;;;;;1026812;28;19910;-76
2022/12/25 05:05:07;;;;;;;;;;;;;;;;;;1022913;29;20416;-77
2022/12/25 05:05:38;;;;;;;;;;;;;;;;;;1023462;29;19945;-77
2022/12/25 05:06:08;;;;;;;;;;;;;;;;;;1023039;28;20250;-77
2022/12/25 05:06:39;;;;;;;;;;;;;;;;;;1022914;28;19911;-77
2022/12/25 05:07:10;;;;;;;;;;;;;;;;;;1026988;28;20373;-76
2022/12/25 05:07:41;;;;;;;;;;;;;;;;;;1026648;28;19916;-77
2022/12/25 05:08:12;;;;;;;;;;;;;;;;;;1027658;28;20460;-77
2022/12/25 05:08:43;;;;;;;;;;;;;;;;;;1026693;28;19914;-76
2022/12/25 05:09:14;;;;;;;;;;;;;;;;;;1026770;28;20352;-77
2022/12/25 05:09:44;;;;;;;;;;;;;;;;;;1023079;28;19921;-77
2022/12/25 05:10:15;;;;;;;;;;;;;;;;;;1022691;29;20419;-77
2022/12/25 05:10:46;;;;;;;;;;;;;;;;;;1023620;28;19944;-77
2022/12/25 05:11:17;;;;;;;;;;;;;;;;;;1022742;29;20362;-76
2022/12/25 05:11:48;;;;;;;;;;;;;;;;;;1022273;29;19910;-77
2022/12/25 05:12:19;;;;;;;;;;;;;;;;;;1022653;29;19993;-76
2022/12/25 05:12:50;;;;;;;;;;;;;;;;;;1022723;28;19915;-77
2022/12/25 05:13:21;;;;;;;;;;;;;;;;;;1023015;29;19921;-77
2022/12/25 05:13:51;;;;;;;;;;;;;;;;;;1022706;29;19915;-77
2022/12/25 05:14:22;;;;;;;;;;;;;;;;;;1022740;29;19997;-77
2022/12/25 05:14:53;;;;;;;;;;;;;;;;;;1022068;29;20370;-78
2022/12/25 05:15:24;;;;;;;;;;;;;;;;;;1022756;29;19914;-77